Time;durP1;ratioP1;P1;durP2;ratioP2;P2;SDS_P1;SDS_P2;PMS_P1;PMS_P2;Temp;Humidity;BMP_temperature;BMP_pressure;BME280_temperature;BME280_humidity;BME280_pressure;Samples;Min_cycle;Max_cycle;Signal;HPM_P1;HPM_P2
2022/04/02 00:01:49;;;;;;;3.60;1.70;;;1.20;72.00;;;;;;5058302;28;20673;-67
2022/04/02 00:04:15;;;;;;;9.67;2.17;;;1.20;72.00;;;;;;5031761;28;20110;-67
2022/04/02 00:06:41;;;;;;;7.33;1.77;;;1.10;72.00;;;;;;5044257;28;20054;-67
2022/04/02 00:09:07;;;;;;;5.40;1.70;;;1.10;71.60;;;;;;5058502;28;20404;-67
2022/04/02 00:11:32;;;;;;;5.30;1.40;;;1.10;71.70;;;;;;5049590;28;20035;-67
2022/04/02 00:14:01;;;;;;;5.20;1.93;;;1.10;71.30;;;;;;5053145;28;20048;-67
2022/04/02 00:16:27;;;;;;;5.10;2.00;;;1.00;71.20;;;;;;5060097;28;21108;-67
2022/04/02 00:18:53;;;;;;;5.10;1.48;;;1.00;71.00;;;;;;5037757;28;20091;-67
2022/04/02 00:21:19;;;;;;;3.47;1.47;;;0.90;70.90;;;;;;5059555;28;20075;-67
2022/04/02 00:23:46;;;;;;;5.82;1.77;;;0.80;70.70;;;;;;5059095;28;20044;-67
2022/04/02 00:26:13;;;;;;;7.18;2.10;;;0.70;70.90;;;;;;5059629;28;20051;-67
2022/04/02 00:28:40;;;;;;;5.15;1.60;;;0.60;70.90;;;;;;5054511;28;20052;-67
2022/04/02 00:31:09;;;;;;;6.25;2.08;;;0.50;71.10;;;;;;5055221;28;20083;-67
2022/04/02 00:33:36;;;;;;;6.65;1.90;;;0.50;71.30;;;;;;5043745;28;20071;-67
2022/04/02 00:36:03;;;;;;;5.65;1.98;;;0.40;71.30;;;;;;5052993;28;20051;-67
2022/04/02 00:38:29;;;;;;;4.15;2.28;;;0.40;71.20;;;;;;5061106;28;20048;-67
2022/04/02 00:40:55;;;;;;;8.10;1.92;;;0.30;71.10;;;;;;5064643;28;20426;-67
2022/04/02 00:43:22;;;;;;;5.00;2.08;;;0.30;71.10;;;;;;5048856;28;20093;-67
2022/04/02 00:45:49;;;;;;;4.97;1.70;;;0.20;71.10;;;;;;5056984;28;20035;-67
2022/04/02 00:48:14;;;;;;;6.13;2.03;;;0.10;71.20;;;;;;5065294;28;20040;-67
2022/04/02 00:50:40;;;;;;;6.83;2.57;;;0.10;71.30;;;;;;5057742;28;20559;-67
2022/04/02 00:53:06;;;;;;;3.90;1.60;;;0.00;71.30;;;;;;5054252;28;20036;-67
2022/04/02 00:55:32;;;;;;;3.47;1.57;;;-0.10;71.40;;;;;;5056365;28;20415;-67
2022/04/02 00:57:59;;;;;;;4.68;2.08;;;-0.20;72.10;;;;;;5065448;28;20040;-67
2022/04/02 01:00:25;;;;;;;3.92;1.75;;;-0.30;72.30;;;;;;5053535;28;20091;-67
2022/04/02 01:02:52;;;;;;;6.60;1.95;;;-0.40;72.40;;;;;;5017010;28;20062;-67
2022/04/02 01:05:17;;;;;;;4.13;1.80;;;-0.40;72.30;;;;;;5045850;28;20783;-67
2022/04/02 01:07:43;;;;;;;4.67;1.57;;;-0.50;72.30;;;;;;5039603;28;20108;-67
2022/04/02 01:10:09;;;;;;;6.27;1.60;;;-0.60;72.30;;;;;;5036825;28;20040;-67
2022/04/02 01:12:35;;;;;;;6.23;2.00;;;-0.60;72.30;;;;;;5057583;28;20599;-67
2022/04/02 01:15:00;;;;;;;6.53;1.80;;;-0.70;72.50;;;;;;5051025;28;20119;-67
2022/04/02 01:17:26;;;;;;;8.00;1.87;;;-0.80;72.50;;;;;;5061645;28;20043;-67
2022/04/02 01:19:53;;;;;;;5.97;1.80;;;-0.80;72.60;;;;;;5054415;28;20055;-67
2022/04/02 01:22:19;;;;;;;4.80;1.85;;;-0.90;72.60;;;;;;5056248;28;20056;-67
2022/04/02 01:24:45;;;;;;;6.73;1.83;;;-1.00;72.60;;;;;;5039891;28;20040;-67
2022/04/02 01:27:11;;;;;;;6.83;2.13;;;-1.00;72.50;;;;;;5033080;28;20037;-67
2022/04/02 01:29:36;;;;;;;4.00;1.70;;;-1.00;72.60;;;;;;5059844;28;20538;-66
2022/04/02 01:32:02;;;;;;;7.23;1.80;;;-1.00;72.40;;;;;;5041532;28;20044;-67
2022/04/02 01:34:32;;;;;;;9.00;1.70;;;-1.10;72.30;;;;;;5060570;28;20048;-66
2022/04/02 01:36:58;;;;;;;4.90;1.65;;;-1.10;72.20;;;;;;5034909;28;20032;-66
2022/04/02 01:39:24;;;;;;;6.17;1.93;;;-1.10;72.10;;;;;;5033561;28;20124;-66
2022/04/02 01:41:49;;;;;;;4.47;1.40;;;-1.00;71.70;;;;;;5030143;28;20044;-66
2022/04/02 01:44:15;;;;;;;3.43;1.50;;;-1.00;71.60;;;;;;5063578;28;20068;-66
2022/04/02 01:46:41;;;;;;;3.90;1.30;;;-1.10;71.40;;;;;;5030756;28;20573;-66
2022/04/02 01:49:07;;;;;;;6.73;1.70;;;-1.10;71.30;;;;;;5068929;28;20044;-67
2022/04/02 01:51:32;;;;;;;4.57;1.40;;;-1.10;71.00;;;;;;5038673;28;20066;-67
2022/04/02 01:53:58;;;;;;;4.37;1.47;;;-1.20;70.90;;;;;;5048187;28;20499;-66
2022/04/02 01:56:24;;;;;;;5.70;1.63;;;-1.20;70.90;;;;;;5033375;28;20051;-66
2022/04/02 01:58:49;;;;;;;5.30;1.20;;;-1.30;70.90;;;;;;5058284;28;20962;-67
2022/04/02 02:01:15;;;;;;;5.07;1.40;;;-1.30;71.00;;;;;;5050104;28;20627;-67
2022/04/02 02:03:41;;;;;;;5.30;1.50;;;-1.30;70.90;;;;;;5050858;28;20037;-67
2022/04/02 02:06:07;;;;;;;3.73;1.43;;;-1.30;70.90;;;;;;5038920;28;20578;-67
2022/04/02 02:08:33;;;;;;;4.33;1.20;;;-1.30;70.90;;;;;;5040468;28;20044;-67
2022/04/02 02:10:59;;;;;;;6.10;1.10;;;-1.30;70.90;;;;;;5062522;28;20032;-66
2022/04/02 02:13:24;;;;;;;6.23;1.50;;;-1.20;70.90;;;;;;5057778;28;20564;-66
2022/04/02 02:15:50;;;;;;;4.27;1.83;;;-1.30;70.70;;;;;;5046700;28;20864;-66
2022/04/02 02:18:16;;;;;;;7.07;1.60;;;-1.30;70.60;;;;;;5060571;28;20646;-66
2022/04/02 02:20:43;;;;;;;3.77;1.63;;;-1.20;70.60;;;;;;5049645;28;20701;-66
2022/04/02 02:23:09;;;;;;;5.40;1.50;;;-1.20;70.50;;;;;;5044818;28;20039;-67
2022/04/02 02:25:34;;;;;;;4.33;1.30;;;-1.20;70.50;;;;;;5049962;28;20089;-67
2022/04/02 02:28:00;;;;;;;4.30;1.70;;;-1.20;70.50;;;;;;5059815;28;20100;-67
2022/04/02 02:30:26;;;;;;;6.63;1.77;;;-1.30;70.30;;;;;;5051724;28;20112;-66
2022/04/02 02:35:49;;;;;;;4.63;1.67;;;-1.30;70.30;;;;;;5060094;28;20115;-66
2022/04/02 02:35:50;;;;;;;;;;;-1.30;70.30;;;;;;5036213;28;20043;-67
2022/04/02 02:38:16;;;;;;;5.57;1.95;;;-1.30;70.40;;;;;;5055544;28;19916;-67
2022/04/02 02:40:42;;;;;;;4.70;1.60;;;-1.40;70.50;;;;;;5061154;28;20051;-66
2022/04/02 02:43:08;;;;;;;5.93;1.43;;;-1.40;70.50;;;;;;5060515;28;20401;-66
2022/04/02 02:45:35;;;;;;;4.47;1.67;;;-1.40;70.60;;;;;;5037158;28;20044;-66
2022/04/02 02:48:02;;;;;;;4.07;1.45;;;-1.40;70.60;;;;;;5018903;28;20059;-67
2022/04/02 02:50:27;;;;;;;5.47;1.42;;;-1.40;70.60;;;;;;5051044;28;20052;-67
2022/04/02 02:52:53;;;;;;;4.80;1.43;;;-1.40;70.70;;;;;;5037306;28;20089;-66
2022/04/02 02:55:19;;;;;;;3.83;1.50;;;-1.40;70.60;;;;;;5066095;28;20044;-66
2022/04/02 02:57:46;;;;;;;6.57;1.30;;;-1.40;70.60;;;;;;5039411;28;20119;-66
2022/04/02 03:00:14;;;;;;;4.18;1.58;;;-1.40;70.60;;;;;;5035357;28;20705;-66
2022/04/02 03:02:40;;;;;;;6.97;1.60;;;-1.40;70.50;;;;;;5055384;28;20044;-66
2022/04/02 03:05:10;;;;;;;3.60;1.42;;;-1.40;70.60;;;;;;5053854;28;20052;-66
2022/04/02 03:07:48;;;;;;;4.38;1.60;;;-1.40;70.60;;;;;;5042907;28;20135;-66
2022/04/02 03:10:22;;;;;;;6.20;1.40;;;-1.50;70.50;;;;;;5049099;28;20044;-66
2022/04/02 03:12:50;;;;;;;8.52;1.83;;;-1.50;70.60;;;;;;5053683;28;20246;-66
2022/04/02 03:15:17;;;;;;;5.18;1.30;;;-1.50;70.50;;;;;;5036699;28;20485;-66
2022/04/02 03:17:43;;;;;;;4.88;1.27;;;-1.50;70.50;;;;;;5050716;28;20542;-66
2022/04/02 03:20:11;;;;;;;3.57;1.37;;;-1.50;70.30;;;;;;5060823;28;20040;-66
2022/04/02 03:22:40;;;;;;;3.72;1.40;;;-1.50;70.30;;;;;;5057866;28;20047;-66
2022/04/02 03:25:11;;;;;;;5.13;1.38;;;-1.50;70.30;;;;;;5058287;28;20050;-66
2022/04/02 03:27:38;;;;;;;3.50;1.65;;;-1.50;70.30;;;;;;5033135;28;20059;-66
2022/04/02 03:30:06;;;;;;;4.95;1.83;;;-1.50;70.20;;;;;;5034149;28;20530;-66
2022/04/02 03:32:32;;;;;;;4.55;1.42;;;-1.60;70.30;;;;;;5038243;28;20504;-66
2022/04/02 03:34:59;;;;;;;5.07;1.47;;;-1.60;70.30;;;;;;5063221;28;20098;-66
2022/04/02 03:37:25;;;;;;;2.47;1.38;;;-1.60;70.20;;;;;;5040923;28;20326;-66
2022/04/02 03:39:52;;;;;;;4.78;1.40;;;-1.60;70.20;;;;;;5045126;28;20040;-66
2022/04/02 03:42:18;;;;;;;5.97;1.30;;;-1.70;70.20;;;;;;5057181;28;20042;-66
2022/04/02 03:44:44;;;;;;;3.53;1.25;;;-1.70;70.40;;;;;;5054492;28;20549;-66
2022/04/02 03:47:10;;;;;;;4.97;1.53;;;-1.70;70.30;;;;;;5056659;28;20140;-66
2022/04/02 03:49:42;;;;;;;5.35;1.20;;;-1.70;70.30;;;;;;5063677;28;20653;-66
2022/04/02 03:52:08;;;;;;;4.55;1.27;;;-1.70;70.50;;;;;;5056192;28;20524;-66
2022/04/02 03:54:35;;;;;;;5.15;1.13;;;-1.70;70.50;;;;;;5071293;28;20479;-66
2022/04/02 03:57:07;;;;;;;6.18;1.23;;;-1.70;70.50;;;;;;5045554;28;20361;-66
2022/04/02 03:59:34;;;;;;;3.28;1.10;;;-1.70;70.40;;;;;;5051672;28;20401;-66
2022/04/02 04:02:00;;;;;;;4.30;1.50;;;-1.70;70.60;;;;;;5036271;28;20039;-66
2022/04/02 04:04:27;;;;;;;3.90;1.40;;;-1.70;70.50;;;;;;5059257;28;20044;-66
2022/04/02 04:06:53;;;;;;;5.28;1.30;;;-1.70;70.50;;;;;;5048427;28;20040;-67
2022/04/02 04:09:22;;;;;;;2.55;1.00;;;-1.70;70.50;;;;;;5053415;28;20048;-67
2022/04/02 04:11:48;;;;;;;3.88;1.25;;;-1.60;70.40;;;;;;5038537;28;20039;-67
2022/04/02 04:14:15;;;;;;;4.70;1.40;;;-1.60;70.40;;;;;;5025948;28;20036;-67
2022/04/02 04:16:41;;;;;;;3.45;1.27;;;-1.60;70.20;;;;;;5063773;28;20048;-67
2022/04/02 04:19:07;;;;;;;4.05;1.38;;;-1.70;70.30;;;;;;5051501;28;20044;-67
2022/04/02 04:21:34;;;;;;;4.83;1.43;;;-1.60;70.30;;;;;;5040020;28;20500;-67
2022/04/02 04:24:07;;;;;;;3.80;1.25;;;-1.70;70.20;;;;;;5030058;28;20044;-67
2022/04/02 04:26:33;;;;;;;4.80;1.48;;;-1.60;70.30;;;;;;5036239;28;20068;-67
2022/04/02 04:28:59;;;;;;;5.18;1.95;;;-1.70;70.30;;;;;;5061485;28;20044;-67
2022/04/02 04:31:25;;;;;;;8.83;2.20;;;-1.60;70.20;;;;;;5037801;28;20071;-67
2022/04/02 04:33:51;;;;;;;4.77;1.17;;;-1.70;70.20;;;;;;5057948;28;20512;-67
2022/04/02 04:36:18;;;;;;;7.22;1.40;;;-1.60;70.20;;;;;;5060158;28;20619;-67
2022/04/02 04:38:45;;;;;;;5.38;1.25;;;-1.60;70.20;;;;;;5047600;28;20043;-67
2022/04/02 04:41:11;;;;;;;4.80;1.10;;;-1.60;70.20;;;;;;5064887;28;20036;-67
2022/04/02 04:43:37;;;;;;;4.63;1.27;;;-1.60;70.20;;;;;;5039100;28;20437;-67
2022/04/02 04:46:03;;;;;;;2.22;1.20;;;-1.60;70.30;;;;;;5061835;28;20119;-67
2022/04/02 04:48:30;;;;;;;2.53;0.98;;;-1.60;70.10;;;;;;5051457;28;20062;-67
2022/04/02 04:50:56;;;;;;;4.05;1.17;;;-1.60;70.10;;;;;;5056582;28;20132;-67
2022/04/02 04:53:22;;;;;;;4.05;1.30;;;-1.60;70.00;;;;;;5063190;28;20511;-67
2022/04/02 04:55:48;;;;;;;3.38;1.30;;;-1.60;70.00;;;;;;5058753;28;20041;-67
2022/04/02 04:58:14;;;;;;;5.53;1.33;;;-1.60;69.90;;;;;;5052069;28;20033;-67
2022/04/02 05:00:43;;;;;;;3.15;1.05;;;-1.60;69.90;;;;;;5038690;28;20044;-67
2022/04/02 05:03:09;;;;;;;2.70;0.98;;;-1.60;70.10;;;;;;5058055;28;20075;-67
2022/04/02 05:05:35;;;;;;;4.10;0.80;;;-1.50;69.90;;;;;;5025419;28;20044;-67
2022/04/02 05:08:01;;;;;;;9.45;1.13;;;-1.50;69.90;;;;;;5064951;28;20050;-67
2022/04/02 05:10:28;;;;;;;2.78;0.98;;;-1.50;69.80;;;;;;5048474;28;20510;-67
2022/04/02 05:12:54;;;;;;;4.47;0.80;;;-1.50;69.70;;;;;;5043721;28;20037;-67
2022/04/02 05:15:21;;;;;;;3.13;1.00;;;-1.50;69.70;;;;;;5059632;28;20115;-67
2022/04/02 05:17:46;;;;;;;2.67;0.75;;;-1.50;69.70;;;;;;5050656;28;20490;-67
2022/04/02 05:20:14;;;;;;;3.30;0.87;;;-1.50;69.60;;;;;;5062910;28;20040;-67
2022/04/02 05:22:41;;;;;;;7.10;1.33;;;-1.40;69.60;;;;;;5068134;28;20151;-67
2022/04/02 05:25:07;;;;;;;5.63;1.08;;;-1.40;69.60;;;;;;5016082;28;20040;-67
2022/04/02 05:27:33;;;;;;;3.50;0.90;;;-1.40;69.50;;;;;;5050689;28;20048;-67
2022/04/02 05:30:00;;;;;;;4.93;1.70;;;-1.40;69.50;;;;;;5033683;28;20035;-67
2022/04/02 05:32:28;;;;;;;3.25;1.02;;;-1.40;69.50;;;;;;5039937;28;20503;-67
2022/04/02 05:34:54;;;;;;;6.18;1.50;;;-1.30;69.50;;;;;;5055647;28;20064;-67
2022/04/02 05:37:20;;;;;;;3.40;1.30;;;-1.30;69.40;;;;;;5050878;28;20851;-67
2022/04/02 05:39:46;;;;;;;5.93;1.50;;;-1.20;69.40;;;;;;5051831;28;20040;-67
2022/04/02 05:42:12;;;;;;;5.40;0.80;;;-1.10;69.30;;;;;;5048939;28;20044;-67
2022/04/02 05:44:39;;;;;;;3.93;1.00;;;-1.10;69.10;;;;;;5056176;28;20044;-67
2022/04/02 05:47:05;;;;;;;3.97;1.10;;;-1.00;69.10;;;;;;5059963;28;20040;-67
2022/04/02 05:49:31;;;;;;;6.82;1.25;;;-0.90;69.10;;;;;;5041278;28;20086;-67
2022/04/02 05:51:58;;;;;;;3.35;1.55;;;-0.90;68.80;;;;;;5034407;28;20127;-67
2022/04/02 05:54:23;;;;;;;5.20;1.25;;;-0.80;69.00;;;;;;5043237;28;20039;-67
2022/04/02 05:56:50;;;;;;;3.57;1.17;;;-0.80;69.10;;;;;;5037814;28;20558;-67
2022/04/02 05:59:16;;;;;;;4.85;1.50;;;-0.70;69.00;;;;;;5048659;28;20493;-67
2022/04/02 06:01:41;;;;;;;5.70;1.20;;;-0.60;69.00;;;;;;5032115;28;20048;-67
2022/04/02 06:04:09;;;;;;;4.07;1.30;;;-0.50;68.70;;;;;;5020037;28;20450;-67
2022/04/02 06:06:34;;;;;;;4.72;1.05;;;-0.50;68.80;;;;;;5052667;28;20067;-67
2022/04/02 06:09:00;;;;;;;3.93;0.90;;;-0.40;68.50;;;;;;5014521;28;20048;-67
2022/04/02 06:11:26;;;;;;;5.10;0.80;;;-0.30;68.30;;;;;;5041990;28;20039;-67
2022/04/02 06:13:51;;;;;;;3.07;1.10;;;-0.30;68.20;;;;;;5047849;28;20043;-67
2022/04/02 06:16:17;;;;;;;3.87;1.20;;;-0.20;68.20;;;;;;5063071;28;20044;-67
2022/04/02 06:18:43;;;;;;;3.80;1.07;;;-0.10;68.10;;;;;;5051601;28;20091;-67
2022/04/02 06:21:11;;;;;;;5.75;1.10;;;0.00;67.80;;;;;;5055482;28;20339;-67
2022/04/02 06:23:37;;;;;;;4.18;1.40;;;0.00;68.00;;;;;;5039388;28;20153;-67
2022/04/02 06:26:03;;;;;;;3.75;1.00;;;0.10;67.70;;;;;;5039610;28;20044;-67
2022/04/02 06:28:29;;;;;;;3.20;1.10;;;0.20;67.70;;;;;;5025697;28;20043;-67
2022/04/02 06:30:54;;;;;;;3.27;1.10;;;0.30;67.40;;;;;;5053241;28;20124;-67
2022/04/02 06:33:20;;;;;;;6.03;1.13;;;0.40;67.20;;;;;;5024425;28;20037;-67
2022/04/02 06:35:46;;;;;;;3.13;1.20;;;0.40;67.00;;;;;;5048655;28;20434;-67
2022/04/02 06:38:13;;;;;;;6.30;1.20;;;0.50;67.00;;;;;;5057841;28;20033;-67
2022/04/02 06:40:39;;;;;;;2.25;1.40;;;0.50;66.50;;;;;;5051450;28;20048;-67
2022/04/02 06:43:05;;;;;;;5.07;1.50;;;0.60;66.50;;;;;;5047338;28;20902;-67
2022/04/02 06:45:31;;;;;;;4.15;1.52;;;0.60;66.40;;;;;;5059353;28;20037;-67
2022/04/02 06:47:57;;;;;;;5.00;1.47;;;0.70;66.60;;;;;;5064579;28;20567;-67
2022/04/02 06:50:23;;;;;;;5.47;1.60;;;0.70;66.70;;;;;;5058428;28;20132;-67
2022/04/02 06:52:48;;;;;;;5.23;1.60;;;0.80;66.60;;;;;;5036755;28;20059;-67
2022/04/02 06:55:15;;;;;;;3.43;1.40;;;0.80;66.40;;;;;;5060914;28;20091;-67
2022/04/02 06:57:48;;;;;;;5.35;1.73;;;0.80;66.20;;;;;;5027943;28;20533;-67
2022/04/02 07:00:15;;;;;;;4.45;1.40;;;0.90;66.20;;;;;;5048675;28;20167;-67
2022/04/02 07:02:41;;;;;;;3.30;1.50;;;1.00;65.80;;;;;;5032730;28;20048;-67
2022/04/02 07:05:08;;;;;;;6.05;1.50;;;1.00;66.00;;;;;;5056350;28;20040;-67
2022/04/02 07:07:34;;;;;;;4.35;1.65;;;1.10;65.90;;;;;;5046925;28;20082;-67
2022/04/02 07:10:00;;;;;;;5.88;1.63;;;1.20;65.70;;;;;;5058259;28;20063;-67
2022/04/02 07:12:26;;;;;;;2.70;1.53;;;1.20;65.90;;;;;;5064479;28;20040;-67
2022/04/02 07:14:51;;;;;;;5.63;1.33;;;1.30;65.70;;;;;;5078141;28;20047;-67
2022/04/02 07:17:17;;;;;;;3.43;1.23;;;1.40;65.50;;;;;;5032932;28;20040;-67
2022/04/02 07:19:46;;;;;;;3.57;1.30;;;1.40;65.40;;;;;;5060698;28;20047;-67
2022/04/02 07:22:14;;;;;;;3.30;1.73;;;1.50;65.40;;;;;;5057987;28;20040;-67
2022/04/02 07:24:40;;;;;;;3.97;1.60;;;1.60;64.70;;;;;;5042511;28;20055;-67
2022/04/02 07:27:07;;;;;;;3.33;1.70;;;1.70;65.00;;;;;;5058275;28;20123;-67
2022/04/02 07:29:34;;;;;;;3.72;1.70;;;1.80;64.60;;;;;;5045669;28;20071;-68
2022/04/02 07:32:00;;;;;;;3.55;1.55;;;1.80;64.60;;;;;;5061418;28;20100;-67
2022/04/02 07:34:26;;;;;;;5.07;1.60;;;1.90;64.70;;;;;;5063178;28;20075;-67
2022/04/02 07:37:08;;;;;;;3.42;1.70;;;1.90;64.80;;;;;;5041042;28;20045;-67
2022/04/02 07:39:37;;;;;;;5.05;1.77;;;2.00;64.50;;;;;;5043719;28;20040;-67
2022/04/02 07:42:20;;;;;;;7.05;1.90;;;2.00;64.70;;;;;;5057591;28;20585;-68
2022/04/02 07:44:50;;;;;;;5.78;2.40;;;2.00;64.50;;;;;;5059520;28;20370;-68
2022/04/02 07:47:22;;;;;;;2.60;1.60;;;2.10;64.00;;;;;;5061103;28;20232;-68
2022/04/02 07:49:52;;;;;;;5.90;3.00;;;2.20;64.30;;;;;;5045194;28;20045;-68
2022/04/02 07:52:19;;;;;;;3.63;1.40;;;2.30;64.10;;;;;;5046668;28;20055;-68
2022/04/02 07:54:48;;;;;;;5.43;1.70;;;2.40;63.80;;;;;;5031909;28;20051;-68
2022/04/02 07:57:14;;;;;;;5.63;1.80;;;2.50;63.70;;;;;;5047952;28;21582;-68
2022/04/02 07:59:42;;;;;;;4.00;1.67;;;2.60;63.90;;;;;;5050951;28;20052;-68
2022/04/02 08:02:36;;;;;;;5.80;1.98;;;2.70;63.60;;;;;;5059408;28;20044;-68
2022/04/02 08:04:59;;;;;;;5.95;1.85;;;2.90;63.00;;;;;;5064142;28;20048;-68
2022/04/02 08:07:29;;;;;;;6.80;1.58;;;3.00;62.80;;;;;;5043241;28;20637;-68
2022/04/02 08:09:56;;;;;;;3.42;1.27;;;3.10;62.40;;;;;;5059013;28;20128;-68
2022/04/02 08:12:24;;;;;;;4.03;1.20;;;3.30;61.90;;;;;;5062118;28;20086;-68
2022/04/02 08:14:51;;;;;;;4.00;1.60;;;3.50;61.10;;;;;;5043528;28;20048;-68
2022/04/02 08:17:19;;;;;;;2.53;0.90;;;3.60;60.60;;;;;;5057002;28;20395;-68
2022/04/02 08:19:46;;;;;;;5.10;0.95;;;3.70;59.60;;;;;;5052794;28;20044;-68
2022/04/02 08:22:11;;;;;;;4.88;0.90;;;3.80;58.70;;;;;;5034534;28;20047;-68
2022/04/02 08:24:37;;;;;;;2.60;0.90;;;3.90;58.90;;;;;;5052809;28;20083;-68
2022/04/02 08:27:28;;;;;;;3.23;0.87;;;4.00;58.00;;;;;;5043506;28;20044;-68
2022/04/02 08:30:09;;;;;;;2.95;0.80;;;4.10;57.10;;;;;;5036496;28;20044;-68
2022/04/02 08:32:59;;;;;;;5.60;1.15;;;4.20;56.40;;;;;;5051024;28;20074;-68
2022/04/02 08:35:45;;;;;;;3.58;0.57;;;4.30;56.80;;;;;;5032382;28;20572;-68
2022/04/02 08:38:27;;;;;;;1.85;0.80;;;4.50;55.50;;;;;;5055450;28;20040;-68
2022/04/02 08:41:25;;;;;;;4.40;1.00;;;4.50;55.60;;;;;;5059455;28;20046;-68
2022/04/02 08:44:13;;;;;;;2.63;0.77;;;4.60;55.20;;;;;;5033343;28;20056;-68
2022/04/02 08:47:26;;;;;;;6.88;1.10;;;4.70;54.10;;;;;;5047036;28;20059;-68
2022/04/02 08:50:11;;;;;;;4.35;1.20;;;4.80;55.40;;;;;;5043145;28;20269;-68
2022/04/02 08:53:17;;;;;;;4.25;1.65;;;5.00;56.90;;;;;;5055365;28;20040;-68
2022/04/02 08:56:05;;;;;;;3.92;1.60;;;5.00;57.30;;;;;;5043249;28;20036;-68
2022/04/02 08:58:49;;;;;;;2.80;1.13;;;5.10;57.70;;;;;;5056000;28;20037;-68
2022/04/02 09:01:24;;;;;;;4.57;1.13;;;5.00;58.00;;;;;;5051635;28;20408;-68
2022/04/02 09:04:19;;;;;;;3.75;1.80;;;5.00;58.60;;;;;;5058063;28;20605;-68
2022/04/02 09:07:10;;;;;;;2.45;1.15;;;5.00;58.70;;;;;;5039146;28;20109;-68
2022/04/02 09:10:13;;;;;;;8.90;1.70;;;5.30;57.90;;;;;;5054946;28;20113;-68
2022/04/02 09:12:51;;;;;;;5.30;1.77;;;5.50;58.20;;;;;;5047543;28;20041;-68
2022/04/02 09:15:58;;;;;;;5.80;1.50;;;5.80;56.30;;;;;;5043952;28;20059;-68
2022/04/02 09:18:46;;;;;;;2.78;1.08;;;6.00;54.10;;;;;;5001092;28;20048;-68
2022/04/02 09:21:17;;;;;;;4.07;0.90;;;6.10;54.00;;;;;;5041535;28;20057;-68
2022/04/02 09:23:48;;;;;;;2.90;0.70;;;6.20;54.20;;;;;;5035168;28;20043;-68
2022/04/02 09:27:04;;;;;;;3.58;0.73;;;6.40;53.20;;;;;;5054217;28;20048;-68
2022/04/02 09:29:42;;;;;;;3.08;0.90;;;6.50;52.60;;;;;;5008745;28;20064;-68
2022/04/02 09:32:17;;;;;;;1.73;0.60;;;6.60;52.10;;;;;;5064097;28;20036;-68
2022/04/02 09:34:42;;;;;;;1.05;0.38;;;6.70;49.90;;;;;;5039387;28;20366;-68
2022/04/02 09:37:33;;;;;;;2.20;0.70;;;6.80;50.90;;;;;;5050324;28;20115;-68
2022/04/02 09:40:10;;;;;;;2.63;0.55;;;6.90;48.70;;;;;;5052585;28;20048;-68
2022/04/02 09:42:44;;;;;;;3.00;0.60;;;6.90;49.20;;;;;;5044603;28;20041;-68
2022/04/02 09:45:13;;;;;;;2.65;0.52;;;6.90;47.60;;;;;;5056114;28;20084;-68
2022/04/02 09:47:51;;;;;;;2.78;0.50;;;6.80;48.20;;;;;;5050272;28;20129;-69
2022/04/02 09:50:28;;;;;;;1.80;0.80;;;6.80;46.80;;;;;;5061018;28;20105;-68
2022/04/02 09:53:13;;;;;;;3.10;0.55;;;6.80;48.00;;;;;;5045112;28;20049;-68
2022/04/02 09:55:53;;;;;;;1.33;0.40;;;7.00;49.20;;;;;;5038380;28;20028;-68
2022/04/02 09:58:22;;;;;;;2.60;0.38;;;7.30;47.40;;;;;;5035052;28;20109;-68
2022/04/02 10:01:01;;;;;;;1.00;0.57;;;7.40;47.40;;;;;;5052806;28;20139;-68
2022/04/02 10:03:47;;;;;;;3.88;0.60;;;7.30;45.60;;;;;;5060296;28;20074;-68
2022/04/02 10:06:28;;;;;;;3.78;0.40;;;7.10;46.60;;;;;;5063032;28;20098;-68
2022/04/02 10:09:04;;;;;;;1.92;0.57;;;6.90;47.90;;;;;;5054262;28;20069;-68
2022/04/02 10:11:31;;;;;;;4.47;0.52;;;6.70;47.90;;;;;;5059437;28;20043;-68
2022/04/02 10:14:01;;;;;;;2.15;0.57;;;6.60;48.00;;;;;;5061548;28;20783;-68
2022/04/02 10:16:28;;;;;;;2.78;0.43;;;6.50;48.50;;;;;;5049286;28;20449;-68
2022/04/02 10:18:57;;;;;;;5.03;0.90;;;6.30;48.20;;;;;;5055202;28;20044;-68
2022/04/02 10:21:23;;;;;;;3.20;0.60;;;6.20;49.10;;;;;;5057606;28;20048;-68
2022/04/02 10:23:58;;;;;;;2.55;0.55;;;6.40;48.90;;;;;;5058477;28;20041;-68
2022/04/02 10:26:26;;;;;;;;;;;6.70;48.80;;;;;;5057940;28;20492;-68
2022/04/02 10:28:57;;;;;;;3.78;0.50;;;7.00;47.30;;;;;;5050878;28;20308;-68
2022/04/02 10:31:37;;;;;;;2.97;0.60;;;6.90;48.30;;;;;;5038797;28;20040;-68
2022/04/02 10:34:27;;;;;;;3.70;0.57;;;6.80;47.70;;;;;;5064796;28;20043;-67
2022/04/02 10:37:00;;;;;;;3.92;0.60;;;6.90;47.40;;;;;;5050886;28;20047;-66
2022/04/02 10:39:29;;;;;;;2.00;0.50;;;7.00;48.70;;;;;;5061784;28;20044;-67
2022/04/02 10:42:01;;;;;;;4.10;0.60;;;7.00;47.20;;;;;;5049834;28;20421;-67
2022/04/02 10:44:54;;;;;;;2.85;0.68;;;7.10;46.70;;;;;;5064170;28;20109;-67
2022/04/02 10:47:26;;;;;;;2.65;0.63;;;7.20;45.70;;;;;;5057463;28;20058;-68
2022/04/02 10:49:54;;;;;;;3.13;0.75;;;7.10;46.70;;;;;;5054854;28;20094;-69
2022/04/02 10:52:23;;;;;;;2.42;0.80;;;7.00;46.30;;;;;;5062918;28;20405;-69
2022/04/02 10:54:49;;;;;;;2.30;0.73;;;6.90;46.70;;;;;;5065330;28;20560;-69
2022/04/02 10:57:17;;;;;;;8.13;1.35;;;6.90;47.40;;;;;;5060082;28;20055;-69
2022/04/02 10:59:46;;;;;;;4.45;0.60;;;6.90;46.10;;;;;;5031419;28;20139;-69
2022/04/02 11:02:22;;;;;;;3.38;0.50;;;6.90;46.70;;;;;;5057249;28;20040;-69
2022/04/02 11:05:04;;;;;;;1.65;0.60;;;6.90;47.00;;;;;;5045787;28;20051;-69
2022/04/02 11:07:35;;;;;;;2.95;0.63;;;7.00;46.60;;;;;;5068331;28;20496;-69
2022/04/02 11:10:01;;;;;;;2.75;0.52;;;6.90;46.80;;;;;;5056220;28;20612;-69
2022/04/02 11:12:41;;;;;;;2.50;0.85;;;6.80;45.80;;;;;;5049634;28;20060;-69
2022/04/02 11:15:23;;;;;;;9.73;1.33;;;6.60;46.40;;;;;;5033488;28;20055;-69
2022/04/02 11:17:57;;;;;;;2.78;0.52;;;6.40;47.20;;;;;;5065057;28;20032;-68
2022/04/02 11:20:30;;;;;;;5.47;1.27;;;6.60;47.60;;;;;;5038087;28;20483;-68
2022/04/02 11:23:12;;;;;;;3.63;0.50;;;6.90;47.70;;;;;;5056300;28;20071;-68
2022/04/02 11:25:43;;;;;;;4.40;0.60;;;7.40;46.70;;;;;;5031320;28;20036;-69
2022/04/02 11:28:12;;;;;;;2.63;0.35;;;7.60;46.20;;;;;;5031873;28;20093;-69
2022/04/02 11:30:47;;;;;;;4.28;0.47;;;7.60;46.00;;;;;;5057110;28;20312;-69
2022/04/02 11:33:14;;;;;;;4.15;0.90;;;7.60;44.30;;;;;;5042671;28;20090;-69
2022/04/02 11:35:47;;;;;;;1.83;0.50;;;7.50;44.80;;;;;;5047367;28;20040;-69
2022/04/02 11:38:19;;;;;;;2.10;0.60;;;7.30;45.60;;;;;;5062644;28;20043;-68
2022/04/02 11:40:52;;;;;;;3.17;0.60;;;7.20;46.00;;;;;;5058257;28;20052;-68
2022/04/02 11:43:18;;;;;;;3.03;0.60;;;7.30;45.30;;;;;;5055495;28;20051;-68
2022/04/02 11:45:46;;;;;;;3.20;0.60;;;7.50;45.70;;;;;;5030931;28;20059;-68
2022/04/02 11:48:15;;;;;;;6.35;1.00;;;7.70;44.80;;;;;;5049794;28;20047;-69
2022/04/02 11:50:43;;;;;;;3.17;0.70;;;7.60;44.70;;;;;;5038664;28;20053;-69
2022/04/02 11:53:10;;;;;;;2.92;0.60;;;7.50;45.20;;;;;;5053333;28;20053;-68
2022/04/02 11:55:37;;;;;;;3.85;0.80;;;7.30;46.10;;;;;;5046613;28;20037;-68
2022/04/02 11:58:11;;;;;;;2.47;0.55;;;7.40;46.20;;;;;;5034330;28;20111;-68
2022/04/02 12:00:39;;;;;;;2.13;0.60;;;7.60;45.90;;;;;;5034584;28;20374;-68
2022/04/02 12:03:19;;;;;;;1.83;0.35;;;7.80;45.80;;;;;;5033500;28;20048;-68
2022/04/02 12:05:46;;;;;;;1.50;0.57;;;8.00;44.00;;;;;;5035133;28;20411;-68
2022/04/02 12:08:29;;;;;;;3.10;0.60;;;8.20;45.20;;;;;;5028867;28;20094;-68
2022/04/02 12:10:57;;;;;;;5.72;0.60;;;8.60;44.30;;;;;;5062361;28;20032;-68
2022/04/02 12:13:23;;;;;;;3.13;0.45;;;8.90;45.10;;;;;;5051687;28;20507;-69
2022/04/02 12:16:09;;;;;;;3.40;0.50;;;9.00;42.70;;;;;;5036154;28;20075;-69
2022/04/02 12:18:52;;;;;;;3.30;0.50;;;8.70;41.60;;;;;;5051853;28;20332;-69
2022/04/02 12:21:35;;;;;;;1.92;0.50;;;8.10;41.10;;;;;;5050839;28;20425;-69
2022/04/02 12:24:02;;;;;;;3.95;0.60;;;7.70;42.40;;;;;;5049795;28;20040;-69
2022/04/02 12:26:29;;;;;;;5.75;0.50;;;7.40;43.00;;;;;;5048804;28;20049;-68
2022/04/02 12:28:59;;;;;;;2.50;0.50;;;7.20;43.60;;;;;;5049763;28;20045;-68
2022/04/02 12:31:30;;;;;;;2.50;0.60;;;6.90;43.20;;;;;;5038524;28;20036;-68
2022/04/02 12:33:57;;;;;;;4.60;0.52;;;6.70;43.60;;;;;;5037694;28;20083;-68
2022/04/02 12:36:32;;;;;;;4.40;0.40;;;6.50;43.50;;;;;;5058300;28;20041;-68
2022/04/02 12:39:03;;;;;;;4.22;0.65;;;6.40;43.20;;;;;;5041031;28;20572;-68
2022/04/02 12:41:29;;;;;;;4.45;0.50;;;6.50;44.60;;;;;;5060916;28;20418;-68
2022/04/02 12:44:00;;;;;;;2.90;0.70;;;6.80;44.00;;;;;;5064595;28;20123;-68
2022/04/02 12:46:27;;;;;;;9.38;1.42;;;7.30;43.50;;;;;;5053075;28;20040;-68
2022/04/02 12:48:53;;;;;;;4.63;0.57;;;7.70;42.80;;;;;;5041333;28;20400;-68
2022/04/02 12:51:19;;;;;;;2.13;0.55;;;7.80;42.20;;;;;;5059649;28;20088;-68
2022/04/02 12:53:48;;;;;;;27.88;4.60;;;7.90;42.40;;;;;;5020513;28;20120;-68
2022/04/02 12:56:25;;;;;;;3.42;1.15;;;8.00;42.60;;;;;;5062066;28;20048;-68
2022/04/02 12:58:52;;;;;;;10.05;0.98;;;8.10;41.10;;;;;;5065102;28;20044;-69
2022/04/02 13:01:27;;;;;;;1.27;0.40;;;8.00;41.20;;;;;;5038179;28;20044;-69
2022/04/02 13:03:59;;;;;;;2.50;0.73;;;7.90;41.20;;;;;;5062838;28;20055;-68
2022/04/02 13:06:33;;;;;;;206.82;23.88;;;7.90;42.50;;;;;;5058342;28;20080;-68
2022/04/02 13:09:01;;;;;;;4.22;0.50;;;8.10;42.80;;;;;;5055551;28;20055;-68